createdAt,value
2022-11-14T00:02:16.331Z,77.64
2022-11-14T00:05:06.739Z,77.75
2022-11-14T00:07:54.627Z,77.89
2022-11-14T00:10:46.008Z,77.87
2022-11-14T00:13:36.098Z,78.09
2022-11-14T00:16:26.375Z,78.05
2022-11-14T00:19:14.403Z,78.08
2022-11-14T00:22:02.286Z,78.22
2022-11-14T00:24:50.319Z,78.31
2022-11-14T00:27:38.052Z,78.37
2022-11-14T00:30:30.270Z,78.33
2022-11-14T00:33:21.476Z,78.41
2022-11-14T00:36:09.470Z,78.44
2022-11-14T00:38:56.940Z,78.47
2022-11-14T00:41:44.500Z,78.58
2022-11-14T00:44:32.215Z,78.63
2022-11-14T00:47:20.264Z,78.59
2022-11-14T00:50:10.698Z,78.74
2022-11-14T00:52:58.607Z,78.75
2022-11-14T00:55:46.053Z,78.81
2022-11-14T00:58:36.426Z,78.83
2022-11-14T01:01:29.411Z,78.80
2022-11-14T01:04:17.041Z,78.82
2022-11-14T01:07:10.580Z,78.88
2022-11-14T01:09:58.378Z,78.90
2022-11-14T01:12:49.311Z,78.92
2022-11-14T01:15:48.781Z,78.89
2022-11-14T01:18:38.059Z,78.93
2022-11-14T01:21:25.813Z,79.02
2022-11-14T01:24:15.497Z,79.09
2022-11-14T01:27:03.299Z,79.02
2022-11-14T01:29:51.259Z,79.10
2022-11-14T01:32:39.142Z,78.96
2022-11-14T01:35:27.144Z,79.02
2022-11-14T01:38:15.996Z,79.04
2022-11-14T01:41:06.085Z,79.19
2022-11-14T01:43:55.123Z,79.08
2022-11-14T01:46:47.562Z,79.17
2022-11-14T01:49:46.996Z,79.28
2022-11-14T01:52:39.422Z,79.25
2022-11-14T01:55:27.565Z,79.26
2022-11-14T01:58:17.048Z,79.34
2022-11-14T02:01:06.472Z,79.44
2022-11-14T02:03:56.515Z,79.40
2022-11-14T02:06:46.420Z,79.43
2022-11-14T02:09:42.957Z,79.49
2022-11-14T02:12:31.498Z,79.38
2022-11-14T02:15:20.335Z,79.48
2022-11-14T02:18:08.076Z,79.51
2022-11-14T02:20:55.610Z,79.54
2022-11-14T02:23:43.478Z,79.51
2022-11-14T02:26:36.936Z,79.49
2022-11-14T02:29:24.795Z,79.40
2022-11-14T02:32:12.438Z,79.38
2022-11-14T02:34:59.963Z,79.35
2022-11-14T02:37:48.899Z,79.51
2022-11-14T02:40:36.996Z,79.44
2022-11-14T02:43:24.618Z,79.25
2022-11-14T02:46:12.322Z,79.19
2022-11-14T02:48:59.981Z,79.27
2022-11-14T02:51:47.363Z,79.26
2022-11-14T02:54:34.796Z,79.25
2022-11-14T02:57:24.763Z,79.29
2022-11-14T03:00:15.148Z,79.39
2022-11-14T03:03:07.621Z,79.29
2022-11-14T03:06:02.464Z,79.46
2022-11-14T03:08:50.258Z,79.65
2022-11-14T03:11:39.455Z,79.55
2022-11-14T03:14:31.635Z,79.49
2022-11-14T03:17:19.010Z,79.50
2022-11-14T03:20:08.760Z,79.53
2022-11-14T03:22:58.774Z,79.54
2022-11-14T03:25:46.401Z,79.55
2022-11-14T03:28:37.129Z,79.60
2022-11-14T03:31:28.376Z,79.54
2022-11-14T03:34:15.850Z,79.52
2022-11-14T03:37:08.726Z,79.44
2022-11-14T03:39:56.647Z,79.49
2022-11-14T03:42:46.413Z,79.42
2022-11-14T03:45:33.908Z,79.47
2022-11-14T03:48:21.391Z,79.51
2022-11-14T03:51:08.874Z,79.56
2022-11-14T03:53:56.418Z,79.53
2022-11-14T03:56:47.891Z,79.70
2022-11-14T03:59:37.776Z,79.58
2022-11-14T04:02:25.269Z,79.55
2022-11-14T04:05:13.012Z,79.49
2022-11-14T04:08:00.732Z,79.47
2022-11-14T04:10:51.281Z,79.52
2022-11-14T04:13:42.384Z,79.55
2022-11-14T04:16:31.382Z,79.34
2022-11-14T04:19:20.329Z,79.31
2022-11-14T04:22:08.374Z,79.26
2022-11-14T04:24:56.043Z,79.23
2022-11-14T04:27:44.272Z,79.23
2022-11-14T04:30:37.757Z,79.19
2022-11-14T04:33:26.016Z,79.27
2022-11-14T04:36:14.048Z,79.18
2022-11-14T04:39:06.046Z,79.20
2022-11-14T04:41:53.880Z,79.24
2022-11-14T04:44:41.468Z,79.23
2022-11-14T04:47:30.404Z,79.20
2022-11-14T04:50:21.673Z,79.12
2022-11-14T04:53:09.761Z,79.11
2022-11-14T04:55:57.413Z,79.13
2022-11-14T04:58:45.295Z,79.00
2022-11-14T05:01:33.357Z,79.06
2022-11-14T05:04:33.172Z,79.12
2022-11-14T05:07:23.682Z,79.10
2022-11-14T05:10:14.953Z,78.98
2022-11-14T05:13:04.825Z,78.99
2022-11-14T05:15:52.867Z,79.05
2022-11-14T05:18:45.810Z,79.06
2022-11-14T05:21:37.054Z,79.00
2022-11-14T05:24:28.697Z,79.11
2022-11-14T05:27:16.504Z,79.16
2022-11-14T05:30:04.944Z,79.18
2022-11-14T05:32:53.031Z,79.23
2022-11-14T05:35:40.713Z,79.27
2022-11-14T05:38:28.970Z,79.40
2022-11-14T05:41:22.204Z,79.34
2022-11-14T05:44:09.998Z,79.38
2022-11-14T05:46:57.624Z,79.31
2022-11-14T05:49:48.491Z,79.44
2022-11-14T05:52:39.012Z,79.39
2022-11-14T05:55:26.945Z,79.34
2022-11-14T05:58:18.295Z,79.24
2022-11-14T06:01:08.878Z,79.24
2022-11-14T06:03:56.848Z,79.27
2022-11-14T06:06:44.682Z,79.30
2022-11-14T06:09:32.116Z,79.33
2022-11-14T06:12:23.095Z,79.31
2022-11-14T06:15:10.997Z,79.40
2022-11-14T06:17:59.689Z,79.49
2022-11-14T06:21:14.753Z,79.38
2022-11-14T06:24:04.879Z,79.57
2022-11-14T06:26:52.893Z,79.44
2022-11-14T06:29:43.191Z,79.32
2022-11-14T06:32:45.281Z,79.06
2022-11-14T06:35:33.536Z,78.94
2022-11-14T06:38:21.622Z,78.89
2022-11-14T06:41:24.808Z,78.86
2022-11-14T06:44:15.720Z,78.85
2022-11-14T06:47:10.913Z,78.53
2022-11-14T06:50:01.849Z,78.42
2022-11-14T06:52:53.849Z,78.51
2022-11-14T06:55:42.116Z,78.75
2022-11-14T06:58:36.583Z,78.88
2022-11-14T07:01:29.042Z,78.95
2022-11-14T07:04:21.971Z,78.90
2022-11-14T07:07:12.566Z,78.73
2022-11-14T07:10:01.732Z,78.86
2022-11-14T07:12:58.339Z,78.88
2022-11-14T07:15:55.917Z,78.80
2022-11-14T07:18:43.889Z,78.97
2022-11-14T07:21:34.742Z,78.97
2022-11-14T07:24:23.775Z,78.91
2022-11-14T07:27:11.692Z,78.79
2022-11-14T07:29:59.816Z,78.75
2022-11-14T07:32:47.641Z,78.57
2022-11-14T07:35:43.646Z,78.43
2022-11-14T07:38:40.739Z,78.38
2022-11-14T07:41:28.804Z,78.34
2022-11-14T07:44:16.641Z,78.45
2022-11-14T07:47:13.032Z,78.40
2022-11-14T07:50:00.834Z,78.33
2022-11-14T07:52:52.832Z,78.11
2022-11-14T07:55:44.084Z,78.18
2022-11-14T07:58:37.063Z,78.43
2022-11-14T08:01:25.729Z,78.39
2022-11-14T08:04:15.806Z,78.23
2022-11-14T08:07:09.592Z,78.21
2022-11-14T08:09:57.537Z,78.14
2022-11-14T08:12:48.384Z,78.20
2022-11-14T08:15:40.788Z,78.30
2022-11-14T08:18:30.571Z,77.96
2022-11-14T08:21:18.525Z,77.80
2022-11-14T08:24:08.243Z,77.82
2022-11-14T08:26:58.039Z,77.56
2022-11-14T08:29:49.943Z,77.53
2022-11-14T08:32:37.815Z,77.75
2022-11-14T08:35:25.264Z,77.60
2022-11-14T08:38:12.638Z,77.43
2022-11-14T08:41:08.067Z,77.47
2022-11-14T08:44:03.896Z,77.53
2022-11-14T08:46:52.237Z,77.18
2022-11-14T08:49:39.823Z,77.21
2022-11-14T08:52:28.627Z,77.40
2022-11-14T08:55:23.613Z,77.38
2022-11-14T08:58:11.670Z,76.78
2022-11-14T09:01:09.503Z,76.96
2022-11-14T09:03:59.997Z,76.76
2022-11-14T09:06:49.463Z,76.78
2022-11-14T09:09:40.433Z,76.77
2022-11-14T09:12:30.736Z,76.95
2022-11-14T09:15:38.129Z,77.02
2022-11-14T09:18:33.874Z,76.84
2022-11-14T09:21:26.294Z,76.34
2022-11-14T09:24:18.329Z,75.15
2022-11-14T09:27:11.291Z,75.36
2022-11-14T09:30:09.019Z,75.24
2022-11-14T09:33:10.052Z,74.92
2022-11-14T09:36:18.308Z,74.04
2022-11-14T09:43:02.007Z,74.27
2022-11-14T09:45:56.762Z,74.11
2022-11-14T09:48:57.243Z,73.93
2022-11-14T09:52:56.699Z,73.87
2022-11-14T09:56:05.937Z,73.67
2022-11-14T09:59:22.327Z,73.43
2022-11-14T10:03:11.466Z,73.41
2022-11-14T10:07:08.686Z,73.65
2022-11-14T10:10:42.930Z,73.23
2022-11-14T10:14:07.924Z,72.45
2022-11-14T10:17:56.853Z,72.41
2022-11-14T10:21:04.744Z,72.21
2022-11-14T10:24:08.066Z,71.87
2022-11-14T10:27:52.524Z,71.11
2022-11-14T10:31:14.939Z,71.16
2022-11-14T10:38:32.161Z,70.14
2022-11-14T10:41:56.306Z,69.98
2022-11-14T10:45:03.330Z,70.15
2022-11-14T10:48:28.362Z,69.09
2022-11-14T10:52:08.190Z,68.45
2022-11-14T10:55:43.491Z,67.43
2022-11-14T10:58:48.964Z,67.06
2022-11-14T11:02:23.024Z,67.06
2022-11-14T11:05:33.545Z,67.25
2022-11-14T11:08:51.566Z,67.13
2022-11-14T11:12:28.330Z,67.11
2022-11-14T11:15:42.839Z,67.38
2022-11-14T11:18:50.737Z,67.76
2022-11-14T11:23:32.130Z,68.12
2022-11-14T11:26:38.399Z,68.16
2022-11-14T11:29:44.632Z,68.20
2022-11-14T11:32:42.499Z,68.45
2022-11-14T11:35:33.422Z,68.51
2022-11-14T11:38:42.842Z,68.12
2022-11-14T11:45:28.818Z,68.74
2022-11-14T11:48:51.462Z,68.81
2022-11-14T11:52:08.436Z,68.94
2022-11-14T11:55:22.581Z,68.98
2022-11-14T11:59:37.755Z,68.95
2022-11-14T12:02:55.939Z,69.18
2022-11-14T12:06:23.303Z,69.22
2022-11-14T12:13:27.830Z,69.68
2022-11-14T12:17:05.313Z,69.46
2022-11-14T12:20:50.087Z,69.37
2022-11-14T12:24:27.600Z,69.53
2022-11-14T12:27:54.293Z,69.89
2022-11-14T12:31:11.875Z,69.75
2022-11-14T12:34:17.369Z,69.73
2022-11-14T12:37:36.770Z,69.95
2022-11-14T12:40:42.545Z,69.88
2022-11-14T12:43:44.268Z,69.84
2022-11-14T12:47:34.584Z,70.02
2022-11-14T12:50:56.512Z,69.87
2022-11-14T12:53:54.559Z,69.66
2022-11-14T12:56:58.735Z,69.78
2022-11-14T13:00:07.328Z,69.92
2022-11-14T13:04:09.413Z,69.89
2022-11-14T13:07:37.922Z,69.91
2022-11-14T13:11:14.395Z,70.02
2022-11-14T13:14:33.361Z,70.02
2022-11-14T13:18:16.630Z,69.97
2022-11-14T13:22:01.555Z,70.12
2022-11-14T13:32:51.754Z,70.09
2022-11-14T13:36:05.398Z,70.12
2022-11-14T13:40:04.514Z,70.02
2022-11-14T13:47:29.721Z,69.99
2022-11-14T13:50:51.271Z,69.86
2022-11-14T13:53:57.309Z,69.81
2022-11-14T13:58:02.682Z,69.70
2022-11-14T14:01:36.279Z,69.79
2022-11-14T14:09:36.110Z,69.97
2022-11-14T14:13:35.627Z,70.08
2022-11-14T14:17:03.752Z,70.07
2022-11-14T14:20:55.683Z,70.03
2022-11-14T14:28:11.022Z,70.21
2022-11-14T14:31:39.151Z,70.18
2022-11-14T14:34:44.897Z,70.24
2022-11-14T14:38:18.603Z,70.32
2022-11-14T14:41:45.864Z,70.44
2022-11-14T14:44:58.729Z,70.38
2022-11-14T14:48:32.326Z,70.45
2022-11-14T14:51:39.627Z,70.60
2022-11-14T14:55:32.177Z,70.65
2022-11-14T14:58:40.661Z,70.83
2022-11-14T15:02:00.673Z,70.82
2022-11-14T15:06:49.156Z,70.97
2022-11-14T15:09:20.218Z,71.14
2022-11-14T15:12:30.130Z,71.31
2022-11-14T15:16:56.006Z,71.31
2022-11-14T15:20:35.543Z,71.42
2022-11-14T15:23:32.024Z,71.56
2022-11-14T15:26:46.620Z,71.58
2022-11-14T15:30:37.145Z,71.68
2022-11-14T15:33:37.755Z,71.89
2022-11-14T15:37:29.776Z,72.02
2022-11-14T15:42:01.953Z,72.21
2022-11-14T15:43:53.759Z,72.42
2022-11-14T15:47:39.792Z,72.58
2022-11-14T15:50:40.442Z,72.50
2022-11-14T15:53:36.316Z,72.62
2022-11-14T15:56:35.051Z,72.92
2022-11-14T15:59:36.747Z,72.97
2022-11-14T16:02:37.224Z,73.02
2022-11-14T16:05:56.862Z,73.03
2022-11-14T16:09:02.409Z,73.17
2022-11-14T16:11:59.087Z,73.20
2022-11-14T16:14:51.278Z,73.23
2022-11-14T16:17:46.379Z,73.33
2022-11-14T16:20:41.917Z,73.61
2022-11-14T16:23:42.210Z,73.87
2022-11-14T16:26:49.872Z,74.12
2022-11-14T16:29:40.131Z,74.29
2022-11-14T16:32:55.606Z,74.59
2022-11-14T16:35:55.048Z,74.74
2022-11-14T16:39:20.727Z,74.84
2022-11-14T16:43:53.667Z,74.94
2022-11-14T16:45:43.760Z,75.06
2022-11-14T16:48:37.484Z,75.24
2022-11-14T16:52:15.527Z,75.35
2022-11-14T16:55:10.526Z,75.61
2022-11-14T16:58:20.609Z,75.67
2022-11-14T17:01:38.319Z,75.69
2022-11-14T17:04:33.404Z,75.81
2022-11-14T17:07:53.034Z,75.98
2022-11-14T17:10:51.672Z,76.00
2022-11-14T17:17:22.146Z,76.21
2022-11-14T17:20:21.339Z,76.24
2022-11-14T17:23:23.527Z,76.33
2022-11-14T17:26:33.023Z,76.40
2022-11-14T17:29:41.282Z,76.60
2022-11-14T17:33:11.364Z,76.55
2022-11-14T17:36:50.603Z,76.71
2022-11-14T17:39:52.163Z,76.70
2022-11-14T17:42:59.212Z,76.76
2022-11-14T17:46:14.266Z,76.76
2022-11-14T17:49:08.005Z,76.87
2022-11-14T17:52:04.914Z,76.73
2022-11-14T17:55:07.211Z,76.70
2022-11-14T17:58:05.572Z,76.86
2022-11-14T18:01:59.820Z,76.79
2022-11-14T18:05:10.708Z,76.72
2022-11-14T18:08:10.968Z,76.75
2022-11-14T18:11:41.441Z,76.70
2022-11-14T18:19:42.436Z,76.57
2022-11-14T18:21:33.716Z,76.60
2022-11-14T18:24:53.908Z,76.60
2022-11-14T18:28:14.468Z,76.63
2022-11-14T18:31:14.015Z,76.53
2022-11-14T18:38:16.326Z,76.55
2022-11-14T18:41:28.977Z,76.48
2022-11-14T18:44:51.153Z,76.54
2022-11-14T18:47:45.183Z,76.62
2022-11-14T18:50:41.825Z,76.76
2022-11-14T18:53:55.394Z,76.68
2022-11-14T18:56:51.972Z,76.55
2022-11-14T19:00:12.222Z,76.69
2022-11-14T19:03:26.123Z,76.71
2022-11-14T19:07:18.495Z,76.57
2022-11-14T19:10:29.601Z,76.60
2022-11-14T19:17:21.153Z,76.33
2022-11-14T19:21:39.975Z,76.25
2022-11-14T19:25:09.314Z,76.40
2022-11-14T19:28:39.571Z,76.59
2022-11-14T19:32:17.002Z,76.63
2022-11-14T19:35:27.711Z,76.70
2022-11-14T19:38:38.602Z,76.77
2022-11-14T19:42:15.603Z,76.68
2022-11-14T19:45:20.617Z,76.55
2022-11-14T19:48:50.193Z,76.90
2022-11-14T19:51:53.648Z,76.94
2022-11-14T19:55:23.069Z,76.98
2022-11-14T19:59:24.382Z,76.96
2022-11-14T20:02:02.982Z,77.13
2022-11-14T20:05:20.902Z,77.10
2022-11-14T20:08:31.927Z,77.32
2022-11-14T20:11:48.441Z,77.38
2022-11-14T20:19:25.031Z,77.40
2022-11-14T20:23:55.160Z,77.79
2022-11-14T20:26:16.399Z,77.80
2022-11-14T20:29:23.937Z,78.21
2022-11-14T20:32:52.938Z,78.21
2022-11-14T20:37:10.495Z,78.46
2022-11-14T20:40:10.258Z,78.43
2022-11-14T20:43:20.722Z,78.58
2022-11-14T20:50:43.322Z,78.99
2022-11-14T20:53:48.777Z,78.99
2022-11-14T20:57:13.458Z,79.17
2022-11-14T21:00:34.333Z,79.58
2022-11-14T21:03:59.382Z,79.67
2022-11-14T21:07:28.855Z,79.58
2022-11-14T21:10:43.616Z,79.49
2022-11-14T21:13:59.400Z,79.65
2022-11-14T21:17:03.717Z,79.78
2022-11-14T21:20:06.246Z,79.43
2022-11-14T21:24:14.920Z,79.71
2022-11-14T21:30:06.810Z,79.51
2022-11-14T21:37:09.798Z,79.80
2022-11-14T21:40:04.307Z,79.74
2022-11-14T21:43:20.464Z,79.71
2022-11-14T21:46:22.498Z,79.84
2022-11-14T21:49:58.522Z,79.76
2022-11-14T21:53:19.440Z,79.77
2022-11-14T21:56:46.664Z,80.07
2022-11-14T21:59:42.825Z,80.17
2022-11-14T22:03:06.954Z,79.91
2022-11-14T22:09:57.494Z,80.02
2022-11-14T22:13:37.090Z,80.00
2022-11-14T22:16:29.150Z,79.93
2022-11-14T22:19:31.273Z,79.91
2022-11-14T22:22:44.443Z,80.08
2022-11-14T22:26:33.829Z,79.98
2022-11-14T22:29:38.820Z,79.96
2022-11-14T22:32:29.222Z,79.96
2022-11-14T22:35:31.211Z,79.82
2022-11-14T22:38:27.149Z,79.85
2022-11-14T22:41:55.212Z,79.86
2022-11-14T22:45:03.086Z,79.80
2022-11-14T22:48:56.038Z,79.82
2022-11-14T22:51:58.756Z,79.87
2022-11-14T22:54:50.553Z,79.92
2022-11-14T22:58:01.610Z,79.88
2022-11-14T23:00:59.862Z,79.88
2022-11-14T23:04:19.783Z,79.83
2022-11-14T23:07:44.179Z,79.64
2022-11-14T23:11:03.291Z,79.78
2022-11-14T23:14:00.850Z,79.71
2022-11-14T23:16:52.830Z,79.53
2022-11-14T23:19:50.743Z,79.49
2022-11-14T23:26:16.673Z,79.20
2022-11-14T23:29:07.509Z,79.24
2022-11-14T23:32:03.183Z,79.22
2022-11-14T23:34:59.770Z,79.13
2022-11-14T23:37:50.250Z,79.20
2022-11-14T23:40:51.409Z,79.27
2022-11-14T23:43:55.709Z,79.32
2022-11-14T23:47:13.778Z,79.35
2022-11-14T23:50:06.795Z,79.39
2022-11-14T23:53:19.420Z,79.31
2022-11-14T23:56:17.372Z,79.43
2022-11-14T23:59:08.352Z,79.24
